Time;durP1;ratioP1;P1;durP2;ratioP2;P2;SDS_P1;SDS_P2;PMS_P1;PMS_P2;Temp;Humidity;BMP_temperature;BMP_pressure;BME280_temperature;BME280_humidity;BME280_pressure;Samples;Min_cycle;Max_cycle;Signal;HPM_P1;HPM_P2
2022/03/18 00:00:24;;;;;;;0.30;0.10;;;4.30;94.40;;;;;;5067115;28;20462;-84
2022/03/18 00:02:54;;;;;;;0.40;0.37;;;4.20;94.60;;;;;;5068638;28;20452;-83
2022/03/18 00:05:22;;;;;;;0.40;0.30;;;4.20;94.60;;;;;;5067720;28;20496;-84
2022/03/18 00:07:49;;;;;;;0.80;0.80;;;4.20;94.80;;;;;;5065067;28;20550;-84
2022/03/18 00:10:17;;;;;;;0.30;0.20;;;4.10;94.80;;;;;;5069771;28;21008;-85
2022/03/18 00:12:45;;;;;;;0.70;0.70;;;4.00;94.90;;;;;;5067101;28;20453;-87
2022/03/18 00:15:15;;;;;;;0.30;0.10;;;3.80;95.10;;;;;;5059183;28;20989;-88
2022/03/18 00:17:42;;;;;;;0.50;0.50;;;3.60;95.70;;;;;;5067060;28;20828;-89
2022/03/18 00:20:13;;;;;;;0.60;0.60;;;3.40;96.30;;;;;;5067532;28;20470;-86
2022/03/18 00:22:40;;;;;;;1.47;1.37;;;3.20;96.90;;;;;;5063511;28;20470;-86
2022/03/18 00:25:09;;;;;;;1.23;1.13;;;3.10;97.30;;;;;;5065439;28;20528;-87
2022/03/18 00:27:36;;;;;;;0.40;0.40;;;2.90;97.90;;;;;;5066412;28;20482;-87
2022/03/18 00:30:04;;;;;;;0.50;0.43;;;2.80;98.30;;;;;;5064627;28;20967;-88
2022/03/18 00:32:32;;;;;;;2.23;0.60;;;2.70;98.90;;;;;;5062774;28;20460;-87
2022/03/18 00:34:59;;;;;;;0.30;0.20;;;2.60;99.20;;;;;;5068204;28;20447;-88
2022/03/18 00:37:27;;;;;;;0.30;0.20;;;2.70;99.70;;;;;;5067950;28;20505;-89
2022/03/18 00:39:54;;;;;;;0.30;0.20;;;2.60;99.80;;;;;;5063651;28;20517;-87
2022/03/18 00:42:21;;;;;;;0.30;0.20;;;2.50;99.90;;;;;;5070865;28;20528;-88
2022/03/18 00:44:49;;;;;;;1.13;1.13;;;2.40;99.90;;;;;;5070427;28;20448;-86
2022/03/18 00:52:46;;;;;;;0.93;0.93;;;2.20;99.90;;;;;;5067550;28;20458;-85
2022/03/18 00:55:13;;;;;;;0.30;0.10;;;2.20;99.90;;;;;;5067288;28;20476;-86
2022/03/18 00:57:40;;;;;;;0.30;0.10;;;2.10;99.90;;;;;;5070497;28;20818;-85
2022/03/18 01:00:08;;;;;;;0.40;0.30;;;2.00;99.90;;;;;;5067419;28;20652;-85
2022/03/18 01:02:35;;;;;;;0.30;0.10;;;2.00;99.90;;;;;;5066782;28;20496;-85
2022/03/18 01:05:02;;;;;;;2.10;2.00;;;2.10;99.90;;;;;;5066102;28;20529;-87
2022/03/18 01:07:30;;;;;;;0.40;0.30;;;2.00;99.90;;;;;;5062722;28;20460;-86
2022/03/18 01:09:59;;;;;;;0.67;0.53;;;2.00;99.90;;;;;;5072767;28;20459;-87
2022/03/18 01:12:26;;;;;;;1.23;1.13;;;2.00;99.90;;;;;;5069280;28;20503;-88
2022/03/18 01:14:54;;;;;;;0.40;0.27;;;2.00;99.90;;;;;;5070634;28;20954;-85
2022/03/18 01:17:21;;;;;;;0.60;0.60;;;2.00;99.90;;;;;;5069499;28;20523;-86
2022/03/18 01:19:48;;;;;;;0.50;0.50;;;2.00;99.90;;;;;;5070903;28;20966;-88
2022/03/18 01:22:15;;;;;;;0.30;0.20;;;2.00;99.90;;;;;;5074920;28;20464;-86
2022/03/18 01:24:42;;;;;;;0.40;0.30;;;2.00;99.90;;;;;;5087814;28;20461;-86
2022/03/18 01:27:10;;;;;;;0.30;0.20;;;1.90;99.90;;;;;;5067287;28;21071;-85
2022/03/18 01:29:37;;;;;;;0.40;0.20;;;1.90;99.90;;;;;;5064435;28;20935;-84
2022/03/18 01:32:05;;;;;;;0.30;0.20;;;1.90;99.90;;;;;;5069495;28;20974;-84
2022/03/18 01:34:32;;;;;;;0.40;0.20;;;1.90;99.90;;;;;;5067735;28;21003;-84
2022/03/18 01:36:59;;;;;;;0.40;0.30;;;1.90;99.90;;;;;;5066476;28;20953;-84
2022/03/18 01:39:26;;;;;;;1.30;1.30;;;1.80;99.90;;;;;;5064892;28;20447;-83
2022/03/18 01:41:53;;;;;;;0.57;0.57;;;1.90;99.90;;;;;;5066398;28;20489;-84
2022/03/18 01:44:22;;;;;;;2.40;2.30;;;1.90;99.90;;;;;;5072882;28;20454;-83
2022/03/18 01:46:49;;;;;;;0.30;0.10;;;2.00;99.90;;;;;;5068878;28;20486;-89
2022/03/18 01:49:17;;;;;;;0.30;0.10;;;2.00;99.90;;;;;;5070534;28;20465;-87
2022/03/18 01:51:45;;;;;;;0.77;0.77;;;2.00;99.90;;;;;;5068687;28;20459;-88
2022/03/18 01:56:59;;;;;;;1.30;1.30;;;1.90;99.90;;;;;;5070502;28;20945;-88
2022/03/18 01:59:31;;;;;;;0.93;0.73;;;1.90;99.90;;;;;;5071134;28;21024;-87
2022/03/18 02:01:58;;;;;;;0.30;0.20;;;1.80;99.90;;;;;;5069444;28;20477;-86
2022/03/18 02:04:27;;;;;;;0.40;0.30;;;1.80;99.90;;;;;;5070952;28;20492;-88
2022/03/18 02:06:56;;;;;;;0.30;0.10;;;1.90;99.90;;;;;;5070931;28;20498;-90
2022/03/18 02:09:24;;;;;;;2.30;0.80;;;2.10;99.90;;;;;;5067705;28;20545;-86
2022/03/18 02:11:51;;;;;;;1.00;1.00;;;2.20;99.90;;;;;;5069211;28;20546;-86
2022/03/18 02:14:32;;;;;;;1.10;1.00;;;2.20;99.90;;;;;;5069900;28;20454;-85
2022/03/18 02:16:59;;;;;;;0.30;0.20;;;2.10;99.90;;;;;;5066145;28;20450;-87
2022/03/18 02:19:26;;;;;;;0.30;0.20;;;2.10;99.90;;;;;;5069767;28;20868;-86
2022/03/18 02:21:57;;;;;;;0.40;0.30;;;2.00;99.90;;;;;;5058841;28;20452;-86
2022/03/18 02:24:26;;;;;;;0.60;0.60;;;1.90;99.90;;;;;;5066314;28;20460;-84
2022/03/18 02:26:54;;;;;;;0.70;0.70;;;1.90;99.90;;;;;;5060713;28;20512;-86
2022/03/18 02:29:23;;;;;;;0.30;0.10;;;2.00;99.90;;;;;;5069066;28;20448;-87
2022/03/18 02:31:51;;;;;;;1.03;0.93;;;2.00;99.90;;;;;;5067972;28;20864;-84
2022/03/18 02:34:18;;;;;;;0.87;0.87;;;2.00;99.90;;;;;;5069100;28;21016;-84
2022/03/18 02:36:46;;;;;;;0.30;0.20;;;2.00;99.90;;;;;;5065720;28;20946;-87
2022/03/18 02:39:14;;;;;;;0.40;0.20;;;1.90;99.90;;;;;;5071619;28;20556;-84
2022/03/18 02:41:44;;;;;;;1.17;1.17;;;1.80;99.90;;;;;;5066846;28;20442;-85
2022/03/18 02:44:11;;;;;;;0.40;0.33;;;1.60;99.90;;;;;;5069065;28;20466;-86
2022/03/18 02:46:39;;;;;;;0.30;0.10;;;1.50;99.90;;;;;;5067270;28;20486;-85
2022/03/18 02:49:07;;;;;;;0.30;0.20;;;1.40;99.90;;;;;;5067788;28;20467;-87
2022/03/18 02:51:37;;;;;;;0.30;0.20;;;1.30;99.90;;;;;;5064357;28;20529;-85
2022/03/18 02:54:06;;;;;;;0.30;0.10;;;1.20;99.90;;;;;;5069842;28;20464;-83
2022/03/18 02:56:34;;;;;;;0.60;0.60;;;1.10;99.90;;;;;;5070548;28;20471;-85
2022/03/18 02:59:04;;;;;;;0.30;0.20;;;0.90;99.90;;;;;;5063280;28;20961;-84
2022/03/18 03:01:33;;;;;;;0.30;0.10;;;0.90;99.90;;;;;;5069594;28;20463;-85
2022/03/18 03:04:01;;;;;;;0.30;0.30;;;0.90;99.90;;;;;;5066978;28;20493;-85
2022/03/18 03:09:16;;;;;;;0.30;0.20;;;0.80;99.90;;;;;;5065926;28;20470;-86
2022/03/18 03:11:45;;;;;;;0.30;0.20;;;0.70;99.90;;;;;;5062954;28;20456;-87
2022/03/18 03:14:13;;;;;;;0.30;0.10;;;0.70;99.90;;;;;;5067686;28;20499;-85
2022/03/18 03:16:40;;;;;;;1.50;0.60;;;0.70;99.90;;;;;;5068963;28;20483;-85
2022/03/18 03:19:07;;;;;;;1.03;1.03;;;0.70;99.90;;;;;;5071056;28;20483;-84
2022/03/18 03:21:35;;;;;;;0.47;0.30;;;0.80;99.90;;;;;;5064135;28;20537;-84
2022/03/18 03:24:02;;;;;;;0.40;0.40;;;0.90;99.90;;;;;;5087404;28;20447;-84
2022/03/18 03:26:29;;;;;;;2.07;0.93;;;0.80;99.90;;;;;;5069108;28;20990;-84
2022/03/18 03:28:56;;;;;;;0.30;0.20;;;0.80;99.90;;;;;;5068724;28;20491;-84
2022/03/18 03:31:25;;;;;;;0.30;0.10;;;0.80;99.90;;;;;;5068660;28;20460;-84
2022/03/18 03:33:51;;;;;;;0.40;0.33;;;0.80;99.90;;;;;;5062546;28;20807;-84
2022/03/18 03:36:20;;;;;;;0.53;0.53;;;0.80;99.90;;;;;;5064234;28;20455;-88
2022/03/18 03:38:47;;;;;;;3.10;0.53;;;0.80;99.90;;;;;;5064884;28;20885;-85
2022/03/18 03:41:14;;;;;;;0.30;0.10;;;0.90;99.90;;;;;;5067653;28;20532;-84
2022/03/18 03:43:42;;;;;;;0.50;0.50;;;0.90;99.90;;;;;;5068088;28;20508;-88
2022/03/18 03:46:09;;;;;;;1.53;1.43;;;0.90;99.90;;;;;;5055547;28;20495;-84
2022/03/18 03:48:38;;;;;;;0.83;0.83;;;0.90;99.90;;;;;;5070453;28;20941;-84
2022/03/18 03:51:05;;;;;;;0.30;0.17;;;0.80;99.90;;;;;;5067048;28;20514;-85
2022/03/18 03:53:32;;;;;;;0.40;0.30;;;0.80;99.90;;;;;;5069032;28;20470;-85
2022/03/18 03:55:59;;;;;;;0.47;0.47;;;0.70;99.90;;;;;;5066865;28;20514;-84
2022/03/18 03:58:26;;;;;;;0.30;0.17;;;0.70;99.90;;;;;;5067726;28;20530;-86
2022/03/18 04:00:53;;;;;;;0.30;0.20;;;0.70;99.90;;;;;;5070536;28;20456;-87
2022/03/18 04:03:20;;;;;;;0.30;0.10;;;0.70;99.90;;;;;;5060890;28;20451;-85
2022/03/18 04:05:48;;;;;;;1.73;0.67;;;0.70;99.90;;;;;;5066989;28;20541;-84
2022/03/18 04:08:15;;;;;;;0.53;0.53;;;0.60;99.90;;;;;;5069794;28;20525;-84
2022/03/18 04:10:42;;;;;;;0.77;0.77;;;0.60;99.90;;;;;;5066504;28;20462;-84
2022/03/18 04:13:10;;;;;;;1.07;0.97;;;0.60;99.90;;;;;;5068537;28;20465;-86
2022/03/18 04:15:38;;;;;;;0.40;0.33;;;0.50;99.90;;;;;;5070695;28;20472;-85
2022/03/18 04:18:05;;;;;;;0.30;0.10;;;0.40;99.90;;;;;;5066771;28;20495;-85
2022/03/18 04:20:33;;;;;;;0.30;0.20;;;0.40;99.90;;;;;;5066728;28;20917;-85
2022/03/18 04:23:02;;;;;;;0.30;0.20;;;0.40;99.90;;;;;;5067313;28;20563;-86
2022/03/18 04:25:30;;;;;;;0.30;0.20;;;0.40;99.90;;;;;;5070147;28;20452;-85
2022/03/18 04:27:57;;;;;;;0.30;0.20;;;0.30;99.90;;;;;;5066250;28;20988;-86
2022/03/18 04:30:24;;;;;;;3.27;2.20;;;0.20;99.90;;;;;;5063352;28;20984;-85
2022/03/18 04:32:51;;;;;;;0.70;0.70;;;0.30;99.90;;;;;;5067544;28;20536;-87
2022/03/18 04:35:18;;;;;;;0.57;0.57;;;0.40;99.90;;;;;;5064899;28;20464;-86
2022/03/18 04:37:45;;;;;;;0.57;0.50;;;0.50;99.90;;;;;;5068168;28;20545;-85
2022/03/18 04:40:15;;;;;;;0.93;0.93;;;0.50;99.90;;;;;;5064795;28;20524;-84
2022/03/18 04:42:44;;;;;;;0.30;0.10;;;0.50;99.90;;;;;;5067933;28;20475;-86
2022/03/18 04:45:12;;;;;;;0.30;0.10;;;0.60;99.90;;;;;;5070318;28;20467;-85
2022/03/18 04:47:39;;;;;;;0.40;0.30;;;0.60;99.90;;;;;;5070535;28;21312;-88
2022/03/18 04:50:07;;;;;;;2.67;2.47;;;0.60;99.90;;;;;;5072166;28;20476;-88
2022/03/18 04:52:34;;;;;;;5.30;2.60;;;0.50;99.90;;;;;;5071062;28;20937;-83
2022/03/18 04:55:01;;;;;;;1.73;1.63;;;0.50;99.90;;;;;;5066609;28;20802;-83
2022/03/18 04:57:31;;;;;;;0.30;0.30;;;0.40;99.90;;;;;;5071910;28;20476;-86
2022/03/18 04:59:58;;;;;;;0.80;0.80;;;0.30;99.90;;;;;;5068089;28;20468;-85
2022/03/18 05:02:26;;;;;;;0.30;0.10;;;0.30;99.90;;;;;;5073543;28;20459;-86
2022/03/18 05:04:54;;;;;;;1.90;1.80;;;0.30;99.90;;;;;;5070986;28;20450;-85
2022/03/18 05:07:21;;;;;;;0.30;0.20;;;0.30;99.90;;;;;;5072232;28;20493;-85
2022/03/18 05:09:49;;;;;;;1.70;0.73;;;0.50;99.90;;;;;;5072053;28;21030;-84
2022/03/18 05:12:17;;;;;;;0.30;0.20;;;0.80;99.90;;;;;;5073508;28;20458;-84
2022/03/18 05:14:46;;;;;;;0.30;0.20;;;0.90;99.90;;;;;;5071639;28;21091;-85
2022/03/18 05:17:13;;;;;;;0.30;0.10;;;1.00;99.90;;;;;;5097386;28;20208;-86
2022/03/18 05:19:40;;;;;;;0.37;0.30;;;1.20;99.90;;;;;;5076866;28;20246;-86
2022/03/18 05:22:08;;;;;;;0.40;0.30;;;1.30;99.90;;;;;;5075490;28;20466;-86
2022/03/18 05:24:36;;;;;;;0.55;0.55;;;1.40;99.90;;;;;;5080549;28;20201;-87
2022/03/18 05:27:04;;;;;;;4.90;1.30;;;1.50;99.90;;;;;;5077913;28;20711;-84
2022/03/18 05:29:32;;;;;;;0.70;0.70;;;1.50;99.90;;;;;;5066421;28;20216;-84
2022/03/18 05:32:00;;;;;;;0.40;0.40;;;1.50;99.90;;;;;;5061434;28;20205;-85
2022/03/18 05:34:27;;;;;;;0.50;0.50;;;1.40;99.90;;;;;;5073923;28;20266;-84
2022/03/18 05:36:54;;;;;;;1.38;1.38;;;1.40;99.90;;;;;;5082999;28;20237;-85
2022/03/18 05:39:21;;;;;;;0.30;0.20;;;1.50;99.90;;;;;;5068765;28;20240;-84
2022/03/18 05:41:48;;;;;;;0.40;0.40;;;1.50;99.90;;;;;;5076263;28;20473;-85
2022/03/18 05:44:15;;;;;;;1.40;0.77;;;1.60;99.90;;;;;;5063758;28;20620;-87
2022/03/18 05:46:42;;;;;;;0.57;0.57;;;1.60;99.90;;;;;;5081474;28;20282;-85
2022/03/18 05:49:10;;;;;;;0.40;0.30;;;1.60;99.90;;;;;;5062708;28;20533;-84
2022/03/18 05:51:37;;;;;;;0.37;0.20;;;1.60;99.90;;;;;;5072347;28;20476;-84
2022/03/18 05:54:04;;;;;;;0.30;0.20;;;1.60;99.90;;;;;;5068941;28;20505;-85
2022/03/18 05:59:17;;;;;;;0.30;0.17;;;1.70;99.90;;;;;;5062187;28;20998;-84
2022/03/18 06:01:44;;;;;;;0.57;0.57;;;1.70;99.90;;;;;;5055186;28;20937;-88
2022/03/18 06:04:14;;;;;;;0.37;0.23;;;1.70;99.90;;;;;;5052226;28;20460;-85
2022/03/18 06:06:42;;;;;;;0.50;0.50;;;1.70;99.90;;;;;;5057010;28;20486;-85
2022/03/18 06:11:54;;;;;;;0.60;0.60;;;1.80;99.90;;;;;;5071647;28;20512;-86
2022/03/18 06:14:23;;;;;;;0.63;0.63;;;1.80;99.90;;;;;;5072451;28;20209;-85
2022/03/18 06:16:53;;;;;;;1.17;0.73;;;2.00;99.90;;;;;;5070937;28;20546;-85
2022/03/18 06:19:22;;;;;;;0.40;0.37;;;1.90;99.90;;;;;;5061136;28;20491;-85
2022/03/18 06:21:50;;;;;;;0.30;0.20;;;1.90;99.90;;;;;;5058918;28;21000;-85
2022/03/18 06:24:18;;;;;;;0.80;0.73;;;2.00;99.90;;;;;;5073369;28;20588;-84
2022/03/18 06:26:45;;;;;;;0.50;0.37;;;2.00;99.90;;;;;;5066824;28;20492;-85
2022/03/18 06:29:12;;;;;;;0.95;0.95;;;2.10;99.90;;;;;;5070081;28;20459;-85
2022/03/18 06:31:40;;;;;;;0.30;0.10;;;2.10;99.90;;;;;;5069087;28;20708;-84
2022/03/18 06:34:08;;;;;;;0.30;0.20;;;2.10;99.90;;;;;;5073101;28;20458;-86
2022/03/18 06:36:36;;;;;;;2.73;2.53;;;2.10;99.90;;;;;;5067681;28;20439;-87
2022/03/18 06:39:04;;;;;;;0.60;0.60;;;2.10;99.90;;;;;;5069149;28;20471;-85
2022/03/18 06:41:31;;;;;;;1.03;0.50;;;2.00;99.90;;;;;;5070101;28;20950;-84
2022/03/18 06:43:59;;;;;;;0.40;0.30;;;2.00;99.90;;;;;;5070198;28;20890;-84
2022/03/18 06:46:27;;;;;;;0.40;0.30;;;2.10;99.90;;;;;;5064045;28;20583;-87
2022/03/18 06:48:54;;;;;;;0.30;0.10;;;2.20;99.90;;;;;;5068833;28;20498;-86
2022/03/18 06:51:21;;;;;;;0.30;0.20;;;2.30;99.90;;;;;;5068247;28;20495;-84
2022/03/18 06:53:49;;;;;;;3.23;2.00;;;2.50;99.90;;;;;;5070027;28;20491;-84
2022/03/18 06:56:16;;;;;;;0.40;0.40;;;2.60;99.90;;;;;;5070469;28;20459;-86
2022/03/18 06:58:44;;;;;;;0.30;0.10;;;2.60;99.90;;;;;;5069732;28;20458;-85
2022/03/18 07:01:11;;;;;;;0.30;0.13;;;2.60;99.90;;;;;;5070555;28;20448;-87
2022/03/18 07:03:38;;;;;;;3.13;1.13;;;2.60;99.90;;;;;;5070110;28;20970;-84
2022/03/18 07:06:06;;;;;;;0.57;0.57;;;2.70;99.90;;;;;;5062148;28;20525;-84
2022/03/18 07:08:33;;;;;;;0.40;0.37;;;2.70;99.90;;;;;;5070954;28;20491;-84
2022/03/18 07:11:01;;;;;;;1.40;1.23;;;2.80;99.90;;;;;;5070476;28;20452;-84
2022/03/18 07:13:28;;;;;;;0.80;0.80;;;2.90;99.90;;;;;;5070874;28;20538;-87
2022/03/18 07:15:55;;;;;;;2.83;2.63;;;3.00;99.90;;;;;;5062238;28;20866;-86
2022/03/18 07:18:21;;;;;;;0.50;0.33;;;3.10;99.90;;;;;;5062852;28;20570;-85
2022/03/18 07:20:48;;;;;;;5.37;2.47;;;3.10;99.90;;;;;;5064174;28;20480;-85
2022/03/18 07:23:17;;;;;;;0.30;0.20;;;3.30;99.90;;;;;;5062649;28;20471;-86
2022/03/18 07:25:47;;;;;;;0.63;0.63;;;3.30;99.90;;;;;;5068625;28;20523;-85
2022/03/18 07:28:17;;;;;;;1.63;1.53;;;3.20;99.90;;;;;;5064952;28;20499;-85
2022/03/18 07:30:45;;;;;;;0.30;0.20;;;3.50;99.90;;;;;;5070594;28;20456;-84
2022/03/18 07:33:12;;;;;;;0.30;0.20;;;3.60;99.90;;;;;;5077895;28;20490;-86
2022/03/18 07:35:39;;;;;;;0.53;0.20;;;3.60;99.90;;;;;;5070887;28;20444;-84
2022/03/18 07:38:08;;;;;;;2.23;2.13;;;3.60;99.90;;;;;;5067542;28;20553;-85
2022/03/18 07:40:36;;;;;;;0.30;0.17;;;3.70;99.90;;;;;;5060028;28;20444;-85
2022/03/18 07:43:03;;;;;;;0.43;0.43;;;3.90;99.90;;;;;;5051918;28;20456;-85
2022/03/18 07:45:32;;;;;;;0.40;0.30;;;3.90;99.90;;;;;;5050276;28;20445;-85
2022/03/18 07:48:01;;;;;;;1.77;1.67;;;4.10;99.90;;;;;;5064233;28;20491;-85
2022/03/18 07:50:30;;;;;;;0.73;0.73;;;4.10;99.90;;;;;;5067190;28;20557;-84
2022/03/18 07:52:59;;;;;;;0.50;0.50;;;4.00;99.90;;;;;;5061227;28;20488;-84
2022/03/18 07:55:29;;;;;;;2.40;2.20;;;4.10;99.90;;;;;;5069170;28;20484;-86
2022/03/18 07:57:57;;;;;;;1.10;1.00;;;4.30;99.90;;;;;;5069297;28;20867;-85
2022/03/18 08:00:24;;;;;;;0.70;0.70;;;4.30;99.90;;;;;;5090080;28;20447;-86
2022/03/18 08:02:54;;;;;;;0.30;0.20;;;4.30;99.90;;;;;;5072651;28;20464;-85
2022/03/18 08:05:22;;;;;;;0.70;0.70;;;4.50;99.90;;;;;;5062466;28;20456;-87
2022/03/18 08:07:49;;;;;;;0.40;0.30;;;4.60;99.90;;;;;;5066505;28;20486;-84
2022/03/18 08:10:17;;;;;;;0.40;0.20;;;4.70;99.90;;;;;;5060723;28;20452;-86
2022/03/18 08:12:46;;;;;;;0.30;0.17;;;4.70;99.90;;;;;;5067796;28;20440;-86
2022/03/18 08:15:14;;;;;;;0.30;0.20;;;4.60;99.90;;;;;;5065864;28;20495;-85
2022/03/18 08:17:42;;;;;;;3.23;2.93;;;4.70;99.90;;;;;;5067796;28;20552;-84
2022/03/18 08:20:13;;;;;;;1.50;1.40;;;4.80;99.90;;;;;;5065791;28;20580;-85
2022/03/18 08:22:40;;;;;;;0.70;0.70;;;4.80;99.90;;;;;;5068892;28;20470;-84
2022/03/18 08:25:09;;;;;;;1.53;1.43;;;5.00;99.90;;;;;;5067920;28;20439;-87
2022/03/18 08:27:36;;;;;;;3.07;2.77;;;5.30;99.90;;;;;;5069045;28;20480;-85
2022/03/18 08:30:06;;;;;;;0.87;0.87;;;5.40;99.90;;;;;;5068525;28;20479;-87
2022/03/18 08:32:33;;;;;;;8.70;1.03;;;5.60;99.90;;;;;;5068218;28;20440;-85
2022/03/18 08:35:00;;;;;;;0.40;0.20;;;5.40;99.90;;;;;;5064540;28;20460;-86
2022/03/18 08:40:14;;;;;;;1.33;0.87;;;5.40;99.90;;;;;;5064269;28;20466;-86
2022/03/18 08:42:41;;;;;;;0.40;0.40;;;5.50;99.90;;;;;;5067719;28;20451;-85
2022/03/18 08:45:09;;;;;;;1.70;1.17;;;5.60;99.90;;;;;;5067521;28;20463;-87
2022/03/18 08:47:37;;;;;;;0.97;0.50;;;5.80;99.90;;;;;;5067194;28;20475;-85
2022/03/18 08:50:04;;;;;;;0.30;0.20;;;6.00;99.90;;;;;;5068630;28;20449;-85
2022/03/18 08:52:33;;;;;;;1.63;0.67;;;6.00;99.90;;;;;;5069276;28;20503;-85
2022/03/18 08:55:00;;;;;;;0.40;0.30;;;6.10;99.90;;;;;;5067599;28;20525;-85
2022/03/18 08:57:28;;;;;;;0.60;0.40;;;6.10;99.90;;;;;;5053778;28;20488;-85
2022/03/18 08:59:56;;;;;;;0.30;0.10;;;6.40;99.90;;;;;;5065686;28;20465;-85
2022/03/18 09:02:23;;;;;;;0.63;0.50;;;6.50;99.90;;;;;;5068978;28;20488;-86
2022/03/18 09:04:52;;;;;;;0.70;0.50;;;6.60;99.90;;;;;;5057149;28;20475;-86
2022/03/18 09:07:19;;;;;;;0.60;0.30;;;6.60;99.90;;;;;;5056965;28;20475;-85
2022/03/18 09:09:47;;;;;;;0.30;0.20;;;6.80;99.90;;;;;;5049282;28;20499;-85
2022/03/18 09:12:17;;;;;;;1.67;1.57;;;7.00;99.90;;;;;;5048802;28;20884;-85
2022/03/18 09:14:44;;;;;;;2.20;0.73;;;7.10;99.90;;;;;;5057065;28;20460;-84
2022/03/18 09:17:11;;;;;;;3.03;1.30;;;7.20;99.90;;;;;;5068312;28;20566;-85
2022/03/18 09:19:38;;;;;;;0.30;0.10;;;7.40;99.90;;;;;;5064041;28;20527;-85
2022/03/18 09:22:06;;;;;;;0.43;0.43;;;7.40;99.90;;;;;;5069254;28;20472;-85
2022/03/18 09:24:33;;;;;;;1.07;1.07;;;7.20;99.90;;;;;;5057215;28;20467;-85
2022/03/18 09:27:02;;;;;;;0.30;0.20;;;7.10;99.90;;;;;;5067083;28;20458;-88
2022/03/18 09:29:29;;;;;;;1.47;1.47;;;7.50;99.90;;;;;;5056050;28;21137;-86
2022/03/18 09:31:56;;;;;;;0.63;0.63;;;7.80;99.90;;;;;;5070435;28;20450;-84
2022/03/18 09:34:25;;;;;;;0.30;0.20;;;7.90;99.90;;;;;;5070563;28;20523;-84
2022/03/18 09:36:53;;;;;;;1.50;1.50;;;7.80;99.90;;;;;;5079976;28;20534;-88
2022/03/18 09:39:20;;;;;;;1.07;0.90;;;7.90;99.90;;;;;;5067723;28;20454;-87
2022/03/18 09:41:47;;;;;;;0.30;0.20;;;8.10;99.90;;;;;;5053755;28;20474;-85
2022/03/18 09:44:16;;;;;;;1.20;1.10;;;7.80;99.90;;;;;;5071938;28;20450;-84
2022/03/18 09:46:46;;;;;;;5.00;1.30;;;8.00;99.90;;;;;;5055367;28;20503;-85
2022/03/18 09:49:14;;;;;;;0.43;0.43;;;8.00;99.90;;;;;;5070862;28;20665;-86
2022/03/18 09:51:42;;;;;;;0.50;0.50;;;8.00;99.90;;;;;;5065630;28;20457;-85
2022/03/18 09:54:10;;;;;;;1.10;0.47;;;8.20;99.90;;;;;;5052968;28;20439;-85
2022/03/18 09:56:40;;;;;;;0.40;0.40;;;8.10;99.90;;;;;;5072396;28;20450;-85
2022/03/18 09:59:07;;;;;;;1.57;1.47;;;8.20;99.90;;;;;;5070601;28;20478;-84
2022/03/18 10:01:36;;;;;;;3.40;2.83;;;8.40;99.90;;;;;;5071636;28;20866;-87
2022/03/18 10:04:07;;;;;;;2.20;0.50;;;8.60;99.90;;;;;;5071917;28;20631;-86
2022/03/18 10:06:35;;;;;;;4.43;0.70;;;8.30;99.90;;;;;;5059219;28;20562;-86
2022/03/18 10:09:03;;;;;;;1.00;0.70;;;8.40;99.90;;;;;;5070621;28;20487;-85
2022/03/18 10:11:31;;;;;;;0.60;0.60;;;8.40;99.90;;;;;;5064799;28;21028;-86
2022/03/18 10:14:00;;;;;;;0.93;0.93;;;8.40;99.90;;;;;;5069558;28;20443;-85
2022/03/18 10:16:39;;;;;;;1.23;0.80;;;8.30;99.90;;;;;;5072034;28;20484;-86
2022/03/18 10:19:08;;;;;;;0.30;0.20;;;8.60;99.90;;;;;;5064713;28;20551;-86
2022/03/18 10:21:50;;;;;;;2.20;2.10;;;8.60;99.90;;;;;;5071925;28;20522;-86
2022/03/18 10:24:19;;;;;;;0.60;0.60;;;8.90;99.90;;;;;;5067160;28;20547;-86
2022/03/18 10:26:46;;;;;;;1.70;1.70;;;9.00;99.40;;;;;;5068469;28;20485;-88
2022/03/18 10:29:13;;;;;;;1.20;1.17;;;8.80;99.90;;;;;;5067808;28;20562;-86
2022/03/18 10:31:45;;;;;;;0.63;0.50;;;8.90;99.40;;;;;;5071283;28;20444;-86
2022/03/18 10:37:07;;;;;;;0.40;0.30;;;9.30;99.50;;;;;;5067883;28;20453;-85
2022/03/18 10:39:37;;;;;;;0.50;0.40;;;9.40;99.20;;;;;;5069677;28;20536;-85
2022/03/18 10:42:09;;;;;;;0.40;0.30;;;9.40;99.10;;;;;;5067438;28;20467;-87
2022/03/18 10:44:49;;;;;;;0.50;0.30;;;9.60;98.90;;;;;;5070767;28;20451;-85
2022/03/18 10:47:29;;;;;;;0.80;0.77;;;9.70;98.60;;;;;;5070740;28;20450;-86
2022/03/18 10:50:24;;;;;;;0.87;0.87;;;9.40;98.20;;;;;;5067767;28;21041;-87
2022/03/18 10:53:06;;;;;;;8.03;3.17;;;9.40;99.00;;;;;;5070736;28;20531;-88
2022/03/18 10:55:36;;;;;;;1.70;1.60;;;9.50;98.30;;;;;;5069109;28;20546;-86
2022/03/18 10:58:05;;;;;;;5.80;0.83;;;9.80;98.40;;;;;;5071196;28;20460;-84
2022/03/18 11:00:34;;;;;;;1.10;1.00;;;9.90;97.90;;;;;;5068605;28;21365;-85
2022/03/18 11:03:03;;;;;;;0.50;0.50;;;9.80;97.90;;;;;;5069905;28;20463;-88
2022/03/18 11:05:33;;;;;;;3.03;2.93;;;10.00;96.90;;;;;;5069831;28;20513;-86
2022/03/18 11:08:01;;;;;;;1.63;0.40;;;10.00;96.90;;;;;;5070200;28;20444;-85
2022/03/18 11:13:15;;;;;;;0.50;0.50;;;10.10;97.10;;;;;;5069520;28;20438;-86
2022/03/18 11:15:45;;;;;;;0.50;0.50;;;10.30;97.30;;;;;;5067787;28;20535;-85
2022/03/18 11:18:14;;;;;;;0.40;0.37;;;10.20;96.60;;;;;;5062717;28;20574;-86
2022/03/18 11:20:43;;;;;;;0.87;0.63;;;10.00;95.40;;;;;;5067237;28;21097;-86
2022/03/18 11:23:18;;;;;;;1.03;0.63;;;10.20;96.90;;;;;;5050636;28;20447;-85
2022/03/18 11:25:49;;;;;;;0.40;0.40;;;10.50;97.10;;;;;;5069003;28;20455;-86
2022/03/18 11:28:18;;;;;;;1.07;1.07;;;10.90;96.60;;;;;;5069787;28;21792;-85
2022/03/18 11:30:47;;;;;;;1.83;1.20;;;11.00;95.20;;;;;;5061973;28;20469;-86
2022/03/18 11:33:24;;;;;;;1.13;1.03;;;10.70;95.30;;;;;;5053606;28;20450;-86
2022/03/18 11:36:19;;;;;;;6.93;1.27;;;10.50;95.40;;;;;;5053549;28;20453;-85
2022/03/18 11:39:02;;;;;;;0.80;0.80;;;10.50;95.20;;;;;;5067240;28;20456;-85
2022/03/18 11:41:45;;;;;;;2.00;0.70;;;10.30;95.30;;;;;;5051370;28;20460;-86
2022/03/18 11:44:33;;;;;;;0.40;0.40;;;10.40;94.50;;;;;;5065058;28;20454;-87
2022/03/18 11:47:34;;;;;;;2.67;1.00;;;10.30;94.90;;;;;;5064490;28;20463;-86
2022/03/18 11:50:05;;;;;;;0.60;0.20;;;10.70;94.60;;;;;;5049518;28;20487;-85
2022/03/18 11:52:34;;;;;;;1.50;0.70;;;10.60;95.00;;;;;;5048878;28;20468;-86
2022/03/18 11:55:10;;;;;;;0.40;0.40;;;10.70;95.20;;;;;;5068019;28;20957;-85
2022/03/18 11:57:45;;;;;;;11.53;0.70;;;10.80;94.40;;;;;;5067792;28;20464;-85
2022/03/18 12:00:42;;;;;;;0.90;0.60;;;11.00;94.00;;;;;;5069645;28;20531;-85
2022/03/18 12:03:21;;;;;;;0.37;0.20;;;10.90;94.00;;;;;;5070206;28;20443;-87
2022/03/18 12:05:56;;;;;;;0.77;0.77;;;11.10;93.90;;;;;;5050514;28;20879;-86
2022/03/18 12:09:00;;;;;;;0.40;0.30;;;11.00;94.20;;;;;;5049766;28;20486;-87
2022/03/18 12:11:37;;;;;;;0.50;0.50;;;10.80;94.00;;;;;;5049761;28;20498;-86
2022/03/18 12:14:06;;;;;;;0.60;0.60;;;10.60;94.40;;;;;;5049136;28;20450;-85
2022/03/18 12:16:33;;;;;;;2.97;0.80;;;10.70;94.60;;;;;;5066484;28;20539;-85
2022/03/18 12:19:11;;;;;;;1.93;1.10;;;10.90;95.20;;;;;;5069507;28;20475;-86
2022/03/18 12:21:43;;;;;;;0.70;0.43;;;11.10;94.30;;;;;;5069458;28;20444;-85
2022/03/18 12:24:12;;;;;;;0.53;0.53;;;11.00;94.80;;;;;;5050024;28;20468;-85
2022/03/18 12:26:40;;;;;;;0.80;0.67;;;10.90;94.40;;;;;;5059404;28;20458;-85
2022/03/18 12:29:08;;;;;;;0.40;0.40;;;10.90;95.20;;;;;;5066253;28;20487;-88
2022/03/18 12:31:36;;;;;;;5.43;1.40;;;10.80;94.90;;;;;;5053787;28;20509;-85
2022/03/18 12:34:08;;;;;;;3.13;1.80;;;11.10;95.40;;;;;;5069447;28;20521;-84
2022/03/18 12:36:40;;;;;;;2.10;0.60;;;11.20;94.80;;;;;;5055597;28;20971;-85
2022/03/18 12:39:14;;;;;;;0.50;0.50;;;11.10;94.50;;;;;;5051724;28;20456;-85
2022/03/18 12:41:44;;;;;;;0.50;0.50;;;11.30;95.40;;;;;;5054504;28;20506;-87
2022/03/18 12:44:10;;;;;;;1.30;1.20;;;11.50;94.90;;;;;;5061490;28;20455;-86
2022/03/18 12:46:41;;;;;;;1.07;0.77;;;11.70;94.20;;;;;;5047254;28;20529;-87
2022/03/18 12:49:14;;;;;;;3.80;1.47;;;11.90;92.90;;;;;;5056887;28;20514;-86
2022/03/18 12:51:51;;;;;;;1.50;1.40;;;11.90;93.40;;;;;;5063948;28;20464;-87
2022/03/18 12:54:18;;;;;;;4.50;0.50;;;11.60;92.20;;;;;;5059984;28;20487;-86
2022/03/18 12:56:45;;;;;;;2.30;1.07;;;12.00;92.90;;;;;;5064546;28;20491;-87
2022/03/18 12:59:16;;;;;;;0.40;0.20;;;12.40;92.50;;;;;;5070149;28;20464;-84
2022/03/18 13:01:52;;;;;;;0.40;0.27;;;12.40;91.90;;;;;;5069133;28;20448;-85
2022/03/18 13:04:21;;;;;;;1.47;1.37;;;12.20;91.70;;;;;;5064949;28;20680;-85
2022/03/18 13:06:52;;;;;;;0.60;0.50;;;12.30;91.10;;;;;;5074505;28;20460;-86
2022/03/18 13:09:19;;;;;;;1.57;0.83;;;12.20;91.50;;;;;;5072397;28;20568;-88
2022/03/18 13:11:46;;;;;;;0.70;0.70;;;12.40;91.50;;;;;;5065990;28;20551;-85
2022/03/18 13:14:14;;;;;;;2.27;1.30;;;12.40;90.60;;;;;;5061908;28;21328;-85
2022/03/18 13:16:43;;;;;;;1.10;0.40;;;12.30;89.60;;;;;;5071815;28;20452;-85
2022/03/18 13:19:10;;;;;;;0.83;0.53;;;12.20;89.90;;;;;;5064838;28;20546;-84
2022/03/18 13:21:43;;;;;;;0.53;0.50;;;12.40;90.00;;;;;;5052655;28;20484;-87
2022/03/18 13:24:12;;;;;;;0.40;0.30;;;12.40;88.00;;;;;;5052178;28;20505;-84
2022/03/18 13:26:43;;;;;;;0.40;0.30;;;12.30;86.90;;;;;;5063566;28;20954;-85
2022/03/18 13:29:11;;;;;;;0.90;0.30;;;12.10;87.10;;;;;;5072320;28;20488;-84